Terminal Aerodrome Forecast
Issued by NWS

Home | Current Version | Previous Version | Text Only | Print | Product List | Glossary On
Versions: 1 2 3 4 5 6 7 8 9 10 11 12 13 14 15
392
FTUS44 KCRP 291120
TAFALI
TAF
KALI 291120Z 2912/3012 15005KT 3SM BR FEW015
     FM291500 18010G15KT P6SM SCT025
      TEMPO 2915/2917 BKN025
     FM291700 17015KT P6SM VCTS BKN035CB
     FM292200 14018G25KT P6SM SCT040
     FM300300 16010KT P6SM SCT025
      TEMPO 3010/3012 5SM BR BKN025=

USA.gov is the U.S. government's official web portal to all federal, state and local government web resources and services.